RYR387 EDDH-ESSA
Flight info
| Callsign | RYR387 |
|---|---|
| Flight time | 1h 12m |
| Altitude | 39000 |
| Route | LUGEG3G LUGEG P605 MEGAR DCT BEDOS N851 PELUP Z226 NILUG |
| Aircraft | B737/M-SDE2E3FGHIRWXY/LB1 |
Departure
| Time | 2026-04-23 15:46 |
|---|---|
| Airport | Hamburg Helmut Schmidt Airport (EDDH) |
Arrival
| Time | 2026-04-23 16:58 |
|---|---|
| Airport | Stockholm-Arlanda Airport (ESSA) |
| Time | Latitude | Longitude | Altitude | Speed | Heading |
|---|---|---|---|---|---|
| 2026-04-23 15:23 | 53.63112 | 10.00375 | 45 ft | 0 kts | 87° |
| 2026-04-23 15:38 | 53.63112 | 10.00372 | 47 ft | 2 kts | 87° |
| 2026-04-23 15:38 | 53.63111 | 10.00329 | 42 ft | 4 kts | 92° |
| 2026-04-23 15:38 | 53.63114 | 10.00283 | 43 ft | 4 kts | 102° |
| 2026-04-23 15:38 | 53.63122 | 10.00242 | 44 ft | 4 kts | 126° |
| 2026-04-23 15:39 | 53.63137 | 10.00222 | 46 ft | 1 kts | 176° |
| 2026-04-23 15:39 | 53.63142 | 10.00221 | 47 ft | 0 kts | 176° |
| 2026-04-23 15:41 | 53.63141 | 10.00221 | 47 ft | 0 kts | 176° |
| 2026-04-23 15:41 | 53.63129 | 10.00217 | 45 ft | 3 kts | 194° |
| 2026-04-23 15:42 | 53.63109 | 10.00209 | 45 ft | 5 kts | 194° |
| 2026-04-23 15:42 | 53.63065 | 10.00178 | 45 ft | 8 kts | 210° |
| 2026-04-23 15:42 | 53.62985 | 10.00100 | 46 ft | 11 kts | 216° |
| 2026-04-23 15:42 | 53.62943 | 10.00047 | 47 ft | 11 kts | 219° |
| 2026-04-23 15:43 | 53.62908 | 9.99952 | 47 ft | 4 kts | 243° |
| 2026-04-23 15:43 | 53.62901 | 9.99929 | 46 ft | 0 kts | 243° |
| 2026-04-23 15:43 | 53.62900 | 9.99926 | 47 ft | 1 kts | 243° |
| 2026-04-23 15:43 | 53.62897 | 9.99916 | 47 ft | 1 kts | 243° |
| 2026-04-23 15:44 | 53.62893 | 9.99901 | 46 ft | 2 kts | 243° |
| 2026-04-23 15:44 | 53.62886 | 9.99879 | 45 ft | 3 kts | 243° |
| 2026-04-23 15:44 | 53.62876 | 9.99848 | 45 ft | 3 kts | 243° |
| 2026-04-23 15:44 | 53.62863 | 9.99799 | 44 ft | 6 kts | 253° |
| 2026-04-23 15:45 | 53.62876 | 9.99739 | 43 ft | 6 kts | 323° |
| 2026-04-23 15:45 | 53.62884 | 9.99733 | 44 ft | 5 kts | 332° |
| 2026-04-23 15:45 | 53.63131 | 9.99516 | 45 ft | 80 kts | 333° |
| 2026-04-23 15:45 | 53.63837 | 9.98887 | 71 ft | 144 kts | 325° |
| 2026-04-23 15:46 | 53.64774 | 9.98093 | 710 ft | 153 kts | 329° |
| 2026-04-23 15:46 | 53.65754 | 9.97310 | 1577 ft | 157 kts | 332° |
| 2026-04-23 15:46 | 53.66719 | 9.96507 | 2548 ft | 152 kts | 332° |
| 2026-04-23 15:46 | 53.67684 | 9.95661 | 3178 ft | 169 kts | 332° |
| 2026-04-23 15:47 | 53.68839 | 9.94745 | 3535 ft | 194 kts | 345° |
| 2026-04-23 15:47 | 53.70207 | 9.94667 | 4186 ft | 200 kts | 358° |
| 2026-04-23 15:47 | 53.71612 | 9.94682 | 4784 ft | 203 kts | 358° |
| 2026-04-23 15:47 | 53.72995 | 9.95149 | 4997 ft | 211 kts | 24° |
| 2026-04-23 15:48 | 53.74154 | 9.96932 | 5028 ft | 249 kts | 50° |
| 2026-04-23 15:48 | 53.75054 | 9.99575 | 5019 ft | 267 kts | 58° |
| 2026-04-23 15:48 | 53.75867 | 10.02431 | 5624 ft | 271 kts | 60° |
| 2026-04-23 15:48 | 53.76658 | 10.05297 | 6731 ft | 268 kts | 60° |
| 2026-04-23 15:49 | 53.77457 | 10.08175 | 7696 ft | 272 kts | 60° |
| 2026-04-23 15:49 | 53.78273 | 10.11084 | 8673 ft | 276 kts | 59° |
| 2026-04-23 15:49 | 53.79137 | 10.14138 | 9720 ft | 280 kts | 59° |
| 2026-04-23 15:49 | 53.79948 | 10.16991 | 10626 ft | 286 kts | 60° |
| 2026-04-23 15:50 | 53.80867 | 10.20202 | 11014 ft | 314 kts | 60° |
| 2026-04-23 15:50 | 53.81851 | 10.23629 | 11238 ft | 343 kts | 60° |
| 2026-04-23 15:50 | 53.82939 | 10.27433 | 11644 ft | 362 kts | 60° |
| 2026-04-23 15:50 | 53.84044 | 10.31321 | 12381 ft | 369 kts | 60° |
| 2026-04-23 15:51 | 53.85161 | 10.35256 | 13297 ft | 372 kts | 61° |
| 2026-04-23 15:51 | 53.86273 | 10.39180 | 14157 ft | 377 kts | 61° |
| 2026-04-23 15:51 | 53.87420 | 10.43208 | 14919 ft | 382 kts | 60° |
| 2026-04-23 15:51 | 53.88856 | 10.47056 | 15762 ft | 382 kts | 48° |
| 2026-04-23 15:52 | 53.90733 | 10.50256 | 16615 ft | 383 kts | 37° |
| 2026-04-23 15:52 | 53.92890 | 10.52926 | 17439 ft | 386 kts | 33° |
| 2026-04-23 15:52 | 53.95116 | 10.55533 | 18201 ft | 392 kts | 32° |
| 2026-04-23 15:52 | 53.97349 | 10.58132 | 18913 ft | 396 kts | 32° |
| 2026-04-23 15:53 | 53.99630 | 10.60796 | 19612 ft | 400 kts | 33° |
| 2026-04-23 15:53 | 54.01924 | 10.63491 | 20317 ft | 403 kts | 33° |
| 2026-04-23 15:53 | 54.04243 | 10.66232 | 20990 ft | 408 kts | 33° |
| 2026-04-23 15:53 | 54.06589 | 10.69017 | 21619 ft | 413 kts | 33° |
| 2026-04-23 15:54 | 54.08983 | 10.71872 | 22263 ft | 417 kts | 33° |
| 2026-04-23 15:54 | 54.11367 | 10.74722 | 22914 ft | 420 kts | 33° |
| 2026-04-23 15:54 | 54.13737 | 10.77563 | 23532 ft | 424 kts | 33° |
| 2026-04-23 15:54 | 54.16189 | 10.80507 | 24070 ft | 428 kts | 33° |
| 2026-04-23 15:55 | 54.18630 | 10.83443 | 24232 ft | 432 kts | 33° |
| 2026-04-23 15:55 | 54.21108 | 10.86426 | 24623 ft | 436 kts | 33° |
| 2026-04-23 15:55 | 54.23546 | 10.89368 | 25266 ft | 435 kts | 33° |
| 2026-04-23 15:55 | 54.26015 | 10.92351 | 25877 ft | 435 kts | 33° |
| 2026-04-23 15:56 | 54.28496 | 10.95352 | 26356 ft | 438 kts | 33° |
| 2026-04-23 15:56 | 54.30992 | 10.98376 | 26830 ft | 441 kts | 33° |
| 2026-04-23 15:56 | 54.33505 | 11.01425 | 27261 ft | 444 kts | 33° |
| 2026-04-23 15:56 | 54.36074 | 11.04546 | 27723 ft | 447 kts | 34° |
| 2026-04-23 15:57 | 54.38581 | 11.07596 | 28163 ft | 449 kts | 34° |
| 2026-04-23 15:57 | 54.41136 | 11.10710 | 28589 ft | 452 kts | 34° |
| 2026-04-23 15:57 | 54.43737 | 11.13886 | 29010 ft | 454 kts | 34° |
| 2026-04-23 15:57 | 54.46285 | 11.17001 | 29392 ft | 456 kts | 34° |
| 2026-04-23 15:58 | 54.48867 | 11.20163 | 29876 ft | 456 kts | 34° |
| 2026-04-23 15:58 | 54.51486 | 11.23376 | 30434 ft | 454 kts | 34° |
| 2026-04-23 15:58 | 54.54050 | 11.26527 | 30947 ft | 452 kts | 34° |
| 2026-04-23 15:58 | 54.56605 | 11.29672 | 31401 ft | 451 kts | 34° |
| 2026-04-23 15:59 | 54.59158 | 11.32818 | 31809 ft | 451 kts | 34° |
| 2026-04-23 15:59 | 54.61705 | 11.35962 | 32249 ft | 450 kts | 33° |
| 2026-04-23 15:59 | 54.64247 | 11.39104 | 32736 ft | 448 kts | 33° |
| 2026-04-23 15:59 | 54.66730 | 11.42180 | 33338 ft | 443 kts | 33° |
| 2026-04-23 16:00 | 54.69224 | 11.45274 | 33810 ft | 441 kts | 33° |
| 2026-04-23 16:00 | 54.71755 | 11.48416 | 34146 ft | 442 kts | 33° |
| 2026-04-23 16:00 | 54.74255 | 11.51526 | 34443 ft | 443 kts | 33° |
| 2026-04-23 16:00 | 54.76755 | 11.54639 | 34777 ft | 442 kts | 33° |
| 2026-04-23 16:01 | 54.79213 | 11.57707 | 35126 ft | 441 kts | 33° |
| 2026-04-23 16:01 | 54.81700 | 11.60815 | 35445 ft | 440 kts | 33° |
| 2026-04-23 16:01 | 54.84183 | 11.63923 | 35733 ft | 440 kts | 33° |
| 2026-04-23 16:01 | 54.86665 | 11.67034 | 36051 ft | 440 kts | 33° |
| 2026-04-23 16:02 | 54.89138 | 11.70139 | 36359 ft | 439 kts | 33° |
| 2026-04-23 16:02 | 54.91611 | 11.73249 | 36668 ft | 439 kts | 33° |
| 2026-04-23 16:02 | 54.94081 | 11.76359 | 36957 ft | 438 kts | 33° |
| 2026-04-23 16:02 | 54.96553 | 11.79477 | 37251 ft | 438 kts | 33° |
| 2026-04-23 16:03 | 54.99015 | 11.82588 | 37548 ft | 437 kts | 33° |
| 2026-04-23 16:03 | 55.01473 | 11.85698 | 37832 ft | 437 kts | 33° |
| 2026-04-23 16:03 | 55.03932 | 11.88815 | 38101 ft | 436 kts | 33° |
| 2026-04-23 16:03 | 55.06384 | 11.91927 | 38386 ft | 436 kts | 33° |
| 2026-04-23 16:04 | 55.08831 | 11.95037 | 38686 ft | 435 kts | 33° |
| 2026-04-23 16:04 | 55.11271 | 11.98144 | 38935 ft | 434 kts | 33° |
| 2026-04-23 16:04 | 55.13712 | 12.01256 | 39128 ft | 435 kts | 33° |
| 2026-04-23 16:05 | 55.17828 | 12.06514 | 39163 ft | 438 kts | 33° |
| 2026-04-23 16:05 | 55.23519 | 12.13810 | 39167 ft | 434 kts | 33° |
| 2026-04-23 16:06 | 55.28379 | 12.20062 | 39169 ft | 432 kts | 33° |
| 2026-04-23 16:06 | 55.33210 | 12.26295 | 39177 ft | 430 kts | 33° |
| 2026-04-23 16:07 | 55.38017 | 12.32515 | 39166 ft | 429 kts | 33° |
| 2026-04-23 16:07 | 55.42805 | 12.38731 | 39160 ft | 427 kts | 33° |
| 2026-04-23 16:08 | 55.47590 | 12.44961 | 39164 ft | 427 kts | 33° |
| 2026-04-23 16:08 | 55.52360 | 12.51190 | 39164 ft | 427 kts | 33° |
| 2026-04-23 16:09 | 55.57129 | 12.57438 | 39159 ft | 428 kts | 33° |
| 2026-04-23 16:09 | 55.61913 | 12.63725 | 39160 ft | 429 kts | 33° |
| 2026-04-23 16:10 | 55.66710 | 12.70048 | 39165 ft | 430 kts | 33° |
| 2026-04-23 16:10 | 55.71509 | 12.76395 | 39158 ft | 431 kts | 33° |
| 2026-04-23 16:11 | 55.76313 | 12.82768 | 39156 ft | 431 kts | 33° |
| 2026-04-23 16:11 | 55.81118 | 12.89163 | 39155 ft | 432 kts | 33° |
| 2026-04-23 16:12 | 55.85920 | 12.95573 | 39148 ft | 432 kts | 33° |
| 2026-04-23 16:12 | 55.90684 | 13.01954 | 39149 ft | 431 kts | 33° |
| 2026-04-23 16:13 | 55.95512 | 13.08442 | 39138 ft | 431 kts | 33° |
| 2026-04-23 16:13 | 56.02652 | 13.18072 | 39137 ft | 430 kts | 33° |
| 2026-04-23 16:14 | 56.07406 | 13.24511 | 39128 ft | 428 kts | 33° |
| 2026-04-23 16:14 | 56.12144 | 13.30948 | 39128 ft | 426 kts | 33° |
| 2026-04-23 16:15 | 56.16853 | 13.37366 | 39131 ft | 425 kts | 32° |
| 2026-04-23 16:15 | 56.21554 | 13.43793 | 39129 ft | 424 kts | 32° |
| 2026-04-23 16:16 | 56.26246 | 13.50227 | 39119 ft | 424 kts | 33° |
| 2026-04-23 16:16 | 56.30928 | 13.56668 | 39118 ft | 423 kts | 33° |
| 2026-04-23 16:17 | 56.35601 | 13.63117 | 39109 ft | 423 kts | 33° |
| 2026-04-23 16:17 | 56.40272 | 13.69584 | 39117 ft | 423 kts | 32° |
| 2026-04-23 16:18 | 56.44942 | 13.76070 | 39092 ft | 423 kts | 32° |
| 2026-04-23 16:18 | 56.49612 | 13.82577 | 39093 ft | 424 kts | 32° |
| 2026-04-23 16:19 | 56.54281 | 13.89104 | 39088 ft | 424 kts | 32° |
| 2026-04-23 16:19 | 56.58944 | 13.95643 | 39089 ft | 424 kts | 32° |
| 2026-04-23 16:20 | 56.63611 | 14.02208 | 39077 ft | 425 kts | 32° |
| 2026-04-23 16:20 | 56.68277 | 14.08793 | 39088 ft | 426 kts | 32° |
| 2026-04-23 16:21 | 56.72954 | 14.15415 | 39085 ft | 426 kts | 32° |
| 2026-04-23 16:21 | 56.77482 | 14.22402 | 39073 ft | 428 kts | 36° |
| 2026-04-23 16:22 | 56.81855 | 14.29771 | 39067 ft | 427 kts | 37° |
| 2026-04-23 16:22 | 56.86214 | 14.37142 | 39058 ft | 427 kts | 36° |
| 2026-04-23 16:23 | 56.90588 | 14.44479 | 39058 ft | 427 kts | 36° |
| 2026-04-23 16:23 | 56.94972 | 14.51814 | 39050 ft | 427 kts | 36° |
| 2026-04-23 16:24 | 56.99353 | 14.59155 | 39080 ft | 427 kts | 36° |
| 2026-04-23 16:24 | 57.03734 | 14.66522 | 39075 ft | 427 kts | 36° |
| 2026-04-23 16:25 | 57.07371 | 14.72657 | 39089 ft | 427 kts | 36° |
| 2026-04-23 16:25 | 57.12487 | 14.81316 | 39081 ft | 428 kts | 36° |
| 2026-04-23 16:26 | 57.16132 | 14.87509 | 39083 ft | 429 kts | 37° |
| 2026-04-23 16:26 | 57.20513 | 14.94972 | 39085 ft | 429 kts | 37° |
| 2026-04-23 16:27 | 57.24894 | 15.02459 | 39117 ft | 429 kts | 36° |
| 2026-04-23 16:27 | 57.29511 | 15.09276 | 39104 ft | 422 kts | 30° |
| 2026-04-23 16:28 | 57.34253 | 15.15685 | 39085 ft | 422 kts | 30° |
| 2026-04-23 16:28 | 57.38974 | 15.22115 | 39084 ft | 421 kts | 30° |
| 2026-04-23 16:29 | 57.43673 | 15.28623 | 39079 ft | 421 kts | 31° |
| 2026-04-23 16:29 | 57.48354 | 15.35166 | 39075 ft | 421 kts | 31° |
| 2026-04-23 16:30 | 57.53023 | 15.41725 | 39078 ft | 421 kts | 31° |
| 2026-04-23 16:30 | 57.57694 | 15.48309 | 39086 ft | 421 kts | 31° |
| 2026-04-23 16:31 | 57.62361 | 15.54907 | 39081 ft | 421 kts | 31° |
| 2026-04-23 16:31 | 57.67027 | 15.61527 | 39076 ft | 421 kts | 31° |
| 2026-04-23 16:32 | 57.71690 | 15.68163 | 39068 ft | 421 kts | 31° |
| 2026-04-23 16:32 | 57.76340 | 15.74804 | 39070 ft | 420 kts | 31° |
| 2026-04-23 16:33 | 57.80981 | 15.81452 | 39068 ft | 420 kts | 31° |
| 2026-04-23 16:33 | 57.83310 | 15.84796 | 38962 ft | 423 kts | 31° |
| 2026-04-23 16:33 | 57.85651 | 15.88162 | 38702 ft | 422 kts | 31° |
| 2026-04-23 16:34 | 57.87973 | 15.91511 | 38419 ft | 419 kts | 31° |
| 2026-04-23 16:34 | 57.90281 | 15.94845 | 38141 ft | 418 kts | 31° |
| 2026-04-23 16:34 | 57.92591 | 15.98186 | 37870 ft | 419 kts | 31° |
| 2026-04-23 16:34 | 57.94903 | 16.01532 | 37601 ft | 420 kts | 31° |
| 2026-04-23 16:35 | 57.97216 | 16.04886 | 37333 ft | 420 kts | 31° |
| 2026-04-23 16:35 | 57.99527 | 16.08245 | 37072 ft | 420 kts | 31° |
| 2026-04-23 16:35 | 58.01836 | 16.11606 | 36867 ft | 419 kts | 31° |
| 2026-04-23 16:35 | 58.04126 | 16.14948 | 36678 ft | 411 kts | 31° |
| 2026-04-23 16:36 | 58.06368 | 16.18233 | 36397 ft | 405 kts | 31° |
| 2026-04-23 16:36 | 58.08594 | 16.21492 | 36153 ft | 406 kts | 31° |
| 2026-04-23 16:36 | 58.10841 | 16.24776 | 35906 ft | 410 kts | 31° |
| 2026-04-23 16:36 | 58.13104 | 16.28087 | 35655 ft | 414 kts | 31° |
| 2026-04-23 16:37 | 58.15375 | 16.31422 | 35405 ft | 413 kts | 31° |
| 2026-04-23 16:37 | 58.17646 | 16.34765 | 35155 ft | 413 kts | 31° |
| 2026-04-23 16:37 | 58.19910 | 16.38107 | 34916 ft | 413 kts | 31° |
| 2026-04-23 16:37 | 58.22173 | 16.41452 | 34681 ft | 412 kts | 31° |
| 2026-04-23 16:38 | 58.24434 | 16.44798 | 34431 ft | 412 kts | 31° |
| 2026-04-23 16:38 | 58.26695 | 16.48150 | 34159 ft | 413 kts | 31° |
| 2026-04-23 16:38 | 58.28982 | 16.51539 | 33614 ft | 419 kts | 31° |
| 2026-04-23 16:38 | 58.31284 | 16.54959 | 33078 ft | 421 kts | 31° |
| 2026-04-23 16:39 | 58.33591 | 16.58396 | 32551 ft | 419 kts | 31° |
| 2026-04-23 16:39 | 58.35855 | 16.61785 | 32023 ft | 410 kts | 31° |
| 2026-04-23 16:39 | 58.38321 | 16.65486 | 31452 ft | 400 kts | 32° |
| 2026-04-23 16:39 | 58.40246 | 16.68375 | 31003 ft | 394 kts | 32° |
| 2026-04-23 16:40 | 58.42384 | 16.71584 | 30511 ft | 389 kts | 32° |
| 2026-04-23 16:40 | 58.44510 | 16.74773 | 30029 ft | 390 kts | 32° |
| 2026-04-23 16:40 | 58.46633 | 16.77956 | 29482 ft | 395 kts | 32° |
| 2026-04-23 16:40 | 58.48810 | 16.81225 | 28937 ft | 400 kts | 32° |
| 2026-04-23 16:41 | 58.51000 | 16.84524 | 28406 ft | 401 kts | 33° |
| 2026-04-23 16:41 | 58.53192 | 16.87837 | 27865 ft | 402 kts | 33° |
| 2026-04-23 16:41 | 58.55385 | 16.91159 | 27340 ft | 402 kts | 33° |
| 2026-04-23 16:41 | 58.57582 | 16.94495 | 26820 ft | 403 kts | 34° |
| 2026-04-23 16:42 | 58.59779 | 16.97833 | 26320 ft | 403 kts | 34° |
| 2026-04-23 16:42 | 58.61979 | 17.01181 | 25820 ft | 405 kts | 34° |
| 2026-04-23 16:42 | 58.64185 | 17.04544 | 25340 ft | 406 kts | 34° |
| 2026-04-23 16:42 | 58.66395 | 17.07919 | 24866 ft | 406 kts | 34° |
| 2026-04-23 16:43 | 58.68608 | 17.11304 | 24387 ft | 406 kts | 34° |
| 2026-04-23 16:43 | 58.70812 | 17.14682 | 23924 ft | 405 kts | 34° |
| 2026-04-23 16:43 | 58.73004 | 17.18047 | 23449 ft | 402 kts | 35° |
| 2026-04-23 16:43 | 58.75179 | 17.21393 | 22926 ft | 399 kts | 34° |
| 2026-04-23 16:44 | 58.77334 | 17.24714 | 22394 ft | 395 kts | 34° |
| 2026-04-23 16:44 | 58.79471 | 17.28009 | 21872 ft | 391 kts | 34° |
| 2026-04-23 16:44 | 58.81581 | 17.31270 | 21397 ft | 387 kts | 34° |
| 2026-04-23 16:44 | 58.83669 | 17.34500 | 20894 ft | 383 kts | 34° |
| 2026-04-23 16:45 | 58.85736 | 17.37702 | 20401 ft | 379 kts | 34° |
| 2026-04-23 16:45 | 58.87773 | 17.40913 | 19914 ft | 377 kts | 37° |
| 2026-04-23 16:45 | 58.89726 | 17.44279 | 19433 ft | 375 kts | 38° |
| 2026-04-23 16:45 | 58.91653 | 17.47672 | 18962 ft | 373 kts | 38° |
| 2026-04-23 16:46 | 58.93559 | 17.51052 | 18498 ft | 370 kts | 38° |
| 2026-04-23 16:46 | 58.95439 | 17.54402 | 17988 ft | 363 kts | 38° |
| 2026-04-23 16:46 | 58.97267 | 17.57680 | 17448 ft | 352 kts | 38° |
| 2026-04-23 16:46 | 58.99038 | 17.60872 | 16939 ft | 343 kts | 38° |
| 2026-04-23 16:47 | 59.00764 | 17.63998 | 16413 ft | 336 kts | 38° |
| 2026-04-23 16:47 | 59.02451 | 17.67066 | 15918 ft | 329 kts | 38° |
| 2026-04-23 16:47 | 59.04106 | 17.70084 | 15416 ft | 324 kts | 38° |
| 2026-04-23 16:47 | 59.05735 | 17.73057 | 14929 ft | 319 kts | 38° |
| 2026-04-23 16:48 | 59.07344 | 17.75997 | 14445 ft | 315 kts | 38° |
| 2026-04-23 16:48 | 59.08931 | 17.78896 | 13974 ft | 312 kts | 38° |
| 2026-04-23 16:48 | 59.10505 | 17.81772 | 13464 ft | 309 kts | 38° |
| 2026-04-23 16:48 | 59.12069 | 17.84629 | 12934 ft | 307 kts | 38° |
| 2026-04-23 16:49 | 59.13111 | 17.86456 | 12587 ft | 303 kts | 33° |
| 2026-04-23 16:49 | 59.15635 | 17.88448 | 11907 ft | 290 kts | 7° |
| 2026-04-23 16:49 | 59.17630 | 17.88858 | 11411 ft | 287 kts | 2° |
| 2026-04-23 16:49 | 59.19618 | 17.89101 | 10911 ft | 285 kts | 1° |
| 2026-04-23 16:50 | 59.21595 | 17.89309 | 10430 ft | 284 kts | 1° |
| 2026-04-23 16:50 | 59.23563 | 17.89367 | 9959 ft | 281 kts | 354° |
| 2026-04-23 16:50 | 59.25442 | 17.88432 | 9437 ft | 279 kts | 340° |
| 2026-04-23 16:50 | 59.27232 | 17.87019 | 8909 ft | 277 kts | 338° |
| 2026-04-23 16:51 | 59.28999 | 17.85559 | 8391 ft | 274 kts | 338° |
| 2026-04-23 16:51 | 59.30778 | 17.84277 | 7859 ft | 272 kts | 349° |
| 2026-04-23 16:51 | 59.32633 | 17.84261 | 7302 ft | 264 kts | 4° |
| 2026-04-23 16:51 | 59.34430 | 17.84807 | 6671 ft | 259 kts | 7° |
| 2026-04-23 16:52 | 59.36184 | 17.85447 | 6031 ft | 254 kts | 7° |
| 2026-04-23 16:52 | 59.37910 | 17.86088 | 5384 ft | 251 kts | 7° |
| 2026-04-23 16:52 | 59.39612 | 17.86713 | 4843 ft | 245 kts | 7° |
| 2026-04-23 16:52 | 59.41354 | 17.87349 | 4460 ft | 233 kts | 7° |
| 2026-04-23 16:53 | 59.42813 | 17.87879 | 4163 ft | 224 kts | 7° |
| 2026-04-23 16:53 | 59.44308 | 17.88422 | 3877 ft | 214 kts | 7° |
| 2026-04-23 16:53 | 59.45747 | 17.88944 | 3569 ft | 205 kts | 7° |
| 2026-04-23 16:53 | 59.47100 | 17.89436 | 3298 ft | 190 kts | 7° |
| 2026-04-23 16:54 | 59.48359 | 17.89893 | 3056 ft | 178 kts | 7° |
| 2026-04-23 16:54 | 59.49526 | 17.90316 | 2823 ft | 167 kts | 7° |
| 2026-04-23 16:54 | 59.50635 | 17.90719 | 2559 ft | 156 kts | 7° |
| 2026-04-23 16:54 | 59.51632 | 17.91082 | 2391 ft | 135 kts | 7° |
| 2026-04-23 16:55 | 59.52501 | 17.91397 | 2189 ft | 120 kts | 7° |
| 2026-04-23 16:55 | 59.53322 | 17.91693 | 2036 ft | 121 kts | 7° |
| 2026-04-23 16:55 | 59.54148 | 17.91992 | 1875 ft | 121 kts | 7° |
| 2026-04-23 16:55 | 59.54974 | 17.92292 | 1703 ft | 121 kts | 7° |
| 2026-04-23 16:56 | 59.55796 | 17.92589 | 1545 ft | 121 kts | 7° |
| 2026-04-23 16:56 | 59.56635 | 17.92893 | 1365 ft | 124 kts | 7° |
| 2026-04-23 16:56 | 59.57492 | 17.93195 | 1222 ft | 127 kts | 7° |
| 2026-04-23 16:56 | 59.58368 | 17.93536 | 1073 ft | 129 kts | 9° |
| 2026-04-23 16:57 | 59.59265 | 17.93892 | 873 ft | 134 kts | 7° |
| 2026-04-23 16:57 | 59.60191 | 17.94198 | 688 ft | 137 kts | 5° |
| 2026-04-23 16:57 | 59.61139 | 17.94536 | 514 ft | 140 kts | 6° |
| 2026-04-23 16:57 | 59.62098 | 17.94881 | 312 ft | 135 kts | 6° |
| 2026-04-23 16:58 | 59.62964 | 17.95208 | 138 ft | 118 kts | 8° |
| 2026-04-23 16:58 | 59.63664 | 17.95447 | 117 ft | 85 kts | 10° |
| 2026-04-23 16:58 | 59.64000 | 17.95558 | 111 ft | 21 kts | 0° |
| 2026-04-23 16:58 | 59.64129 | 17.95528 | 109 ft | 14 kts | 345° |
| 2026-04-23 16:59 | 59.64197 | 17.95480 | 107 ft | 10 kts | 340° |
| 2026-04-23 16:59 | 59.64232 | 17.95455 | 107 ft | 0 kts | 341° |
| 2026-04-23 16:59 | 59.64233 | 17.95455 | 107 ft | 0 kts | 341° |
| 2026-04-23 16:59 | 59.64233 | 17.95454 | 107 ft | 0 kts | 341° |
| 2026-04-23 17:00 | 59.64234 | 17.95454 | 107 ft | 1 kts | 341° |
| 2026-04-23 17:00 | 59.64249 | 17.95445 | 107 ft | 4 kts | 341° |
| 2026-04-23 17:00 | 59.64280 | 17.95424 | 105 ft | 3 kts | 341° |
| 2026-04-23 17:00 | 59.64309 | 17.95405 | 106 ft | 6 kts | 341° |
| 2026-04-23 17:01 | 59.64361 | 17.95369 | 105 ft | 9 kts | 340° |
| 2026-04-23 17:01 | 59.64419 | 17.95334 | 104 ft | 10 kts | 350° |
| 2026-04-23 17:01 | 59.64491 | 17.95330 | 104 ft | 11 kts | 1° |
| 2026-04-23 17:01 | 59.64541 | 17.95234 | 103 ft | 13 kts | 261° |
| 2026-04-23 17:02 | 59.64517 | 17.95130 | 102 ft | 13 kts | 237° |
| 2026-04-23 17:02 | 59.64446 | 17.94908 | 103 ft | 15 kts | 238° |
| 2026-04-23 17:02 | 59.64386 | 17.94719 | 101 ft | 17 kts | 238° |
| 2026-04-23 17:02 | 59.64321 | 17.94513 | 102 ft | 18 kts | 237° |
| 2026-04-23 17:03 | 59.64253 | 17.94302 | 101 ft | 19 kts | 237° |
| 2026-04-23 17:03 | 59.64184 | 17.94086 | 105 ft | 18 kts | 238° |
| 2026-04-23 17:03 | 59.64117 | 17.93874 | 109 ft | 18 kts | 238° |
| 2026-04-23 17:03 | 59.64052 | 17.93668 | 111 ft | 18 kts | 238° |
| 2026-04-23 17:04 | 59.63992 | 17.93450 | 111 ft | 19 kts | 258° |
| 2026-04-23 17:04 | 59.64012 | 17.93206 | 110 ft | 14 kts | 298° |
| 2026-04-23 17:04 | 59.64057 | 17.93037 | 111 ft | 14 kts | 297° |
| 2026-04-23 17:04 | 59.64103 | 17.92864 | 111 ft | 14 kts | 297° |
| 2026-04-23 17:05 | 59.64148 | 17.92691 | 112 ft | 14 kts | 297° |
| 2026-04-23 17:05 | 59.64190 | 17.92525 | 114 ft | 13 kts | 297° |
| 2026-04-23 17:05 | 59.64233 | 17.92366 | 116 ft | 13 kts | 298° |
| 2026-04-23 17:05 | 59.64276 | 17.92204 | 115 ft | 15 kts | 297° |
| 2026-04-23 17:06 | 59.64337 | 17.92080 | 113 ft | 13 kts | 350° |
| 2026-04-23 17:06 | 59.64436 | 17.92107 | 113 ft | 15 kts | 10° |
| 2026-04-23 17:06 | 59.64544 | 17.92146 | 111 ft | 14 kts | 10° |
| 2026-04-23 17:06 | 59.64646 | 17.92183 | 111 ft | 15 kts | 10° |
| 2026-04-23 17:07 | 59.64709 | 17.92233 | 110 ft | 10 kts | 53° |
| 2026-04-23 17:07 | 59.64717 | 17.92331 | 111 ft | 4 kts | 84° |
| 2026-04-23 17:07 | 59.64745 | 17.92359 | 109 ft | 5 kts | 10° |
| 2026-04-23 17:07 | 59.64772 | 17.92385 | 111 ft | 0 kts | 41° |
| 2026-04-23 17:08 | 59.64777 | 17.92396 | 111 ft | 0 kts | 42° |
| 2026-04-23 17:08 | 59.64780 | 17.92401 | 110 ft | 0 kts | 42° |
| 2026-04-23 17:08 | 59.64782 | 17.92403 | 110 ft | 0 kts | 42° |